Time;durP1;ratioP1;P1;durP2;ratioP2;P2;SDS_P1;SDS_P2;PMS_P1;PMS_P2;Temp;Humidity;BMP_temperature;BMP_pressure;BME280_temperature;BME280_humidity;BME280_pressure;Samples;Min_cycle;Max_cycle;Signal;HPM_P1;HPM_P2
2021/04/26 00:02:05;;;;;;;5.57;3.30;;;;;;;;;;5111871;27;21363;-73
2021/04/26 00:04:41;;;;;;;6.23;3.27;;;;;;;;;;5111637;27;20740;-74
2021/04/26 00:07:18;;;;;;;7.80;3.30;;;;;;;;;;5091334;27;20741;-73
2021/04/26 00:09:55;;;;;;;4.90;3.43;;;;;;;;;;5091534;27;21326;-74
2021/04/26 00:12:31;;;;;;;7.07;3.90;;;;;;;;;;5111931;27;20776;-73
2021/04/26 00:15:11;;;;;;;6.00;3.60;;;;;;;;;;5067042;27;20780;-73
2021/04/26 00:17:48;;;;;;;6.87;3.37;;;;;;;;;;5111864;27;20744;-73
2021/04/26 00:20:27;;;;;;;7.03;3.83;;;;;;;;;;5111853;27;20791;-73
2021/04/26 00:23:04;;;;;;;5.07;3.27;;;;;;;;;;5091284;28;20749;-73
2021/04/26 00:25:41;;;;;;;5.30;3.67;;;;;;;;;;5111602;27;20798;-73
2021/04/26 00:28:17;;;;;;;7.37;3.67;;;;;;;;;;5111748;27;20770;-74
2021/04/26 00:30:54;;;;;;;5.07;3.43;;;;;;;;;;5091508;28;20742;-74
2021/04/26 00:33:31;;;;;;;6.50;3.63;;;;;;;;;;5091596;27;20722;-73
2021/04/26 00:36:07;;;;;;;7.97;3.67;;;;;;;;;;5111421;27;20798;-73
2021/04/26 00:38:44;;;;;;;6.27;4.10;;;;;;;;;;5008228;28;20750;-73
2021/04/26 00:41:20;;;;;;;9.03;4.00;;;;;;;;;;5071371;28;20734;-73
2021/04/26 00:43:57;;;;;;;5.40;3.43;;;;;;;;;;5111528;27;20771;-73
2021/04/26 00:46:33;;;;;;;6.83;3.77;;;;;;;;;;5090943;28;20745;-73
2021/04/26 00:49:10;;;;;;;7.57;4.10;;;;;;;;;;5071294;28;20742;-73
2021/04/26 00:51:47;;;;;;;7.20;3.53;;;;;;;;;;5091542;27;20772;-73
2021/04/26 00:54:23;;;;;;;5.17;3.43;;;;;;;;;;5111311;27;20736;-73
2021/04/26 00:57:00;;;;;;;6.17;3.47;;;;;;;;;;5111870;27;20748;-74
2021/04/26 00:59:37;;;;;;;5.47;4.10;;;;;;;;;;5090934;27;20730;-73
2021/04/26 01:02:15;;;;;;;7.13;3.33;;;;;;;;;;5111938;27;20778;-73
2021/04/26 01:04:53;;;;;;;5.83;3.23;;;;;;;;;;5111904;27;20744;-73
2021/04/26 01:07:34;;;;;;;7.93;4.07;;;;;;;;;;5091519;27;20768;-73
2021/04/26 01:10:14;;;;;;;7.60;3.73;;;;;;;;;;5091278;28;20765;-73
2021/04/26 01:13:29;;;;;;;4.77;3.77;;;;;;;;;;5091555;27;20780;-73
2021/04/26 01:16:41;;;;;;;8.53;4.00;;;;;;;;;;5058880;28;20636;-74
2021/04/26 01:19:21;;;;;;;5.33;3.43;;;;;;;;;;5091587;28;20792;-73
2021/04/26 01:22:33;;;;;;;8.73;3.60;;;;;;;;;;5111922;27;20774;-73
2021/04/26 01:25:18;;;;;;;5.67;3.87;;;;;;;;;;5091400;27;20738;-73
2021/04/26 01:28:31;;;;;;;7.73;3.63;;;;;;;;;;5067871;27;20769;-74
2021/04/26 01:32:18;;;;;;;6.57;3.57;;;;;;;;;;5066151;28;20604;-73
2021/04/26 01:35:24;;;;;;;5.90;3.80;;;;;;;;;;5044473;28;20622;-73
2021/04/26 01:38:10;;;;;;;8.40;3.67;;;;;;;;;;5091545;28;20779;-73
2021/04/26 01:40:52;;;;;;;6.97;3.97;;;;;;;;;;5111974;27;20721;-73
2021/04/26 01:43:29;;;;;;;9.07;4.10;;;;;;;;;;5071182;28;20735;-73
2021/04/26 01:46:09;;;;;;;7.97;4.17;;;;;;;;;;5111428;27;20798;-73
2021/04/26 01:48:49;;;;;;;8.77;4.20;;;;;;;;;;5111886;27;20739;-73
2021/04/26 01:51:28;;;;;;;6.50;4.03;;;;;;;;;;5071136;28;20787;-73
2021/04/26 01:54:06;;;;;;;11.80;4.37;;;;;;;;;;5091513;27;20771;-73
2021/04/26 01:56:42;;;;;;;6.90;4.30;;;;;;;;;;5111834;27;20794;-73
2021/04/26 01:59:24;;;;;;;5.10;3.80;;;;;;;;;;5090959;27;20787;-73
2021/04/26 02:02:06;;;;;;;9.37;4.20;;;;;;;;;;5111946;27;20782;-73
2021/04/26 02:04:44;;;;;;;6.90;4.00;;;;;;;;;;5111890;27;21335;-73
2021/04/26 02:07:53;;;;;;;8.63;4.50;;;;;;;;;;5111521;27;20770;-73
2021/04/26 02:10:50;;;;;;;9.27;4.07;;;;;;;;;;5091482;27;20772;-74
2021/04/26 02:13:29;;;;;;;6.77;4.00;;;;;;;;;;5091351;27;20795;-73
2021/04/26 02:16:07;;;;;;;8.20;4.50;;;;;;;;;;5091086;28;20754;-73
2021/04/26 02:18:44;;;;;;;7.50;4.13;;;;;;;;;;5091514;27;20787;-74
2021/04/26 02:21:22;;;;;;;5.60;4.03;;;;;;;;;;5111916;27;21166;-71
2021/04/26 02:24:04;;;;;;;9.00;4.70;;;;;;;;;;5111229;27;20709;-73
2021/04/26 02:26:40;;;;;;;9.70;3.97;;;;;;;;;;5111226;27;20782;-73
2021/04/26 02:29:17;;;;;;;5.73;4.20;;;;;;;;;;5111358;27;21356;-74
2021/04/26 02:31:59;;;;;;;5.77;4.07;;;;;;;;;;5111905;27;20774;-74
2021/04/26 02:34:41;;;;;;;9.67;4.37;;;;;;;;;;5091599;28;20741;-73
2021/04/26 02:37:40;;;;;;;7.17;4.20;;;;;;;;;;5111845;27;20744;-73
2021/04/26 02:40:18;;;;;;;7.57;4.10;;;;;;;;;;5111946;27;20774;-73
2021/04/26 02:43:02;;;;;;;8.43;4.63;;;;;;;;;;5091574;27;21357;-73
2021/04/26 02:45:54;;;;;;;7.33;4.37;;;;;;;;;;5111824;27;20818;-73
2021/04/26 02:48:33;;;;;;;9.47;4.80;;;;;;;;;;5091606;28;20772;-73
2021/04/26 02:51:10;;;;;;;6.20;4.70;;;;;;;;;;5111901;27;20782;-73
2021/04/26 02:53:49;;;;;;;6.43;4.30;;;;;;;;;;5111531;27;20775;-73
2021/04/26 02:56:27;;;;;;;7.07;4.80;;;;;;;;;;5067334;27;20750;-73
2021/04/26 02:59:09;;;;;;;12.87;5.20;;;;;;;;;;5111403;27;20716;-73
2021/04/26 03:01:50;;;;;;;6.73;4.20;;;;;;;;;;5071281;28;20719;-73
2021/04/26 03:04:30;;;;;;;10.77;4.93;;;;;;;;;;5111958;27;21307;-73
2021/04/26 03:07:10;;;;;;;6.13;4.50;;;;;;;;;;5071249;28;20742;-73
2021/04/26 03:09:55;;;;;;;9.70;4.93;;;;;;;;;;5111984;27;20725;-73
2021/04/26 03:12:40;;;;;;;16.83;5.63;;;;;;;;;;5091576;27;20768;-73
2021/04/26 03:15:21;;;;;;;9.23;4.70;;;;;;;;;;5111797;27;20740;-73
2021/04/26 03:18:02;;;;;;;14.77;6.00;;;;;;;;;;5111966;27;20720;-73
2021/04/26 03:20:41;;;;;;;7.50;4.70;;;;;;;;;;5125207;22;20858;-72
2021/04/26 03:23:26;;;;;;;10.07;5.43;;;;;;;;;;5091454;28;21156;-70
2021/04/26 03:26:06;;;;;;;10.43;4.50;;;;;;;;;;5091399;27;20788;-73
2021/04/26 03:28:44;;;;;;;12.03;5.33;;;;;;;;;;5111532;27;20721;-73
2021/04/26 03:31:23;;;;;;;8.13;4.70;;;;;;;;;;5091558;27;20722;-73
2021/04/26 03:34:08;;;;;;;6.77;4.53;;;;;;;;;;5091045;28;20788;-72
2021/04/26 03:36:47;;;;;;;10.07;4.40;;;;;;;;;;5111215;27;20763;-70
2021/04/26 03:39:23;;;;;;;7.13;4.10;;;;;;;;;;5067866;27;20792;-71
2021/04/26 03:42:04;;;;;;;7.77;5.17;;;;;;;;;;5111932;27;20782;-71
2021/04/26 03:44:44;;;;;;;7.10;4.83;;;;;;;;;;5090908;27;20779;-73
2021/04/26 03:47:39;;;;;;;9.17;4.50;;;;;;;;;;5111782;27;20725;-73
2021/04/26 03:50:35;;;;;;;18.27;4.83;;;;;;;;;;5091568;27;20730;-71
2021/04/26 03:53:31;;;;;;;12.00;5.20;;;;;;;;;;5091150;27;21373;-70
2021/04/26 03:56:55;;;;;;;7.03;5.37;;;;;;;;;;5081403;28;20632;-71
2021/04/26 03:59:32;;;;;;;11.53;5.20;;;;;;;;;;5111794;27;20790;-70
2021/04/26 04:02:09;;;;;;;30.10;6.53;;;;;;;;;;5111493;27;20778;-72
2021/04/26 04:04:50;;;;;;;14.50;5.17;;;;;;;;;;5111921;27;20791;-71
2021/04/26 04:07:49;;;;;;;11.70;5.43;;;;;;;;;;5110780;27;20730;-69
2021/04/26 04:10:45;;;;;;;8.40;5.13;;;;;;;;;;5110133;27;20709;-70
2021/04/26 04:13:41;;;;;;;9.90;5.43;;;;;;;;;;5111318;27;20789;-70
2021/04/26 04:16:19;;;;;;;7.90;4.73;;;;;;;;;;5091489;27;20739;-73
2021/04/26 04:18:56;;;;;;;6.90;4.70;;;;;;;;;;5111873;27;21344;-73
2021/04/26 04:21:34;;;;;;;6.53;4.97;;;;;;;;;;5091315;28;20730;-71
2021/04/26 04:24:10;;;;;;;8.70;5.03;;;;;;;;;;5071345;28;20801;-73
2021/04/26 04:26:47;;;;;;;8.70;5.50;;;;;;;;;;5091430;27;20796;-70
2021/04/26 04:29:23;;;;;;;7.30;4.83;;;;;;;;;;5091001;27;21361;-70
2021/04/26 04:32:06;;;;;;;9.50;5.37;;;;;;;;;;5091086;27;20802;-71
2021/04/26 04:35:03;;;;;;;9.53;5.13;;;;;;;;;;5084325;28;20750;-70
2021/04/26 04:37:58;;;;;;;14.93;5.20;;;;;;;;;;5111892;27;20778;-73
2021/04/26 04:40:55;;;;;;;8.77;5.63;;;;;;;;;;5111639;27;20721;-70
2021/04/26 04:43:38;;;;;;;12.47;5.50;;;;;;;;;;5111655;27;20778;-73
2021/04/26 04:46:16;;;;;;;8.70;5.53;;;;;;;;;;5111206;27;20811;-70
2021/04/26 04:49:02;;;;;;;12.67;5.93;;;;;;;;;;5111938;27;20771;-71
2021/04/26 04:51:43;;;;;;;28.40;6.00;;;;;;;;;;5173699;27;20715;-73
2021/04/26 04:54:22;;;;;;;9.23;4.97;;;;;;;;;;5111892;27;21137;-71
2021/04/26 04:57:07;;;;;;;13.50;5.53;;;;;;;;;;5111089;27;20790;-70
2021/04/26 04:59:48;;;;;;;12.43;5.63;;;;;;;;;;5090858;27;20769;-73
2021/04/26 05:02:39;;;;;;;17.77;5.60;;;;;;;;;;5111928;27;20733;-70
2021/04/26 05:05:35;;;;;;;13.37;5.67;;;;;;;;;;5091184;28;20755;-70
2021/04/26 05:08:44;;;;;;;7.23;5.23;;;;;;;;;;5111857;27;20722;-73
2021/04/26 05:12:13;;;;;;;12.73;5.30;;;;;;;;;;5100155;28;20634;-73
2021/04/26 05:14:56;;;;;;;11.90;6.17;;;;;;;;;;5111174;27;20722;-73
2021/04/26 05:17:33;;;;;;;10.27;5.87;;;;;;;;;;5111922;27;20728;-70
2021/04/26 05:20:11;;;;;;;9.27;5.63;;;;;;;;;;5111929;27;20713;-70
2021/04/26 05:22:48;;;;;;;16.27;5.87;;;;;;;;;;5111820;27;20725;-70
2021/04/26 05:25:24;;;;;;;13.97;6.00;;;;;;;;;;5111603;27;21330;-70
2021/04/26 05:28:03;;;;;;;17.03;5.27;;;;;;;;;;5091449;28;21155;-73
2021/04/26 05:30:39;;;;;;;10.43;5.37;;;;;;;;;;5111901;27;20770;-73
2021/04/26 05:33:17;;;;;;;9.70;5.80;;;;;;;;;;5111852;27;20774;-71
2021/04/26 05:36:05;;;;;;;22.27;6.90;;;;;;;;;;5111816;27;21156;-73
2021/04/26 05:38:51;;;;;;;12.17;5.90;;;;;;;;;;5111094;27;20790;-71
2021/04/26 05:41:28;;;;;;;21.40;6.67;;;;;;;;;;5111785;27;20790;-73
2021/04/26 05:44:05;;;;;;;10.27;6.87;;;;;;;;;;5111325;27;21223;-72
2021/04/26 05:46:52;;;;;;;13.47;6.07;;;;;;;;;;5067740;27;20781;-70
2021/04/26 05:49:29;;;;;;;10.33;6.27;;;;;;;;;;5091342;27;21373;-72
2021/04/26 05:52:06;;;;;;;15.87;5.80;;;;;;;;;;5090974;27;20718;-71
2021/04/26 05:54:42;;;;;;;16.33;5.77;;;;;;;;;;5111828;27;20779;-74
2021/04/26 05:57:19;;;;;;;17.57;6.43;;;;;;;;;;5111641;27;20749;-71
2021/04/26 05:59:57;;;;;;;18.60;5.93;;;;;;;;;;5090840;28;20734;-74
2021/04/26 06:02:34;;;;;;;9.93;5.83;;;;;;;;;;5111648;27;20774;-72
2021/04/26 06:05:12;;;;;;;15.83;6.20;;;;;;;;;;5111224;27;20774;-71
2021/04/26 06:07:48;;;;;;;20.53;6.00;;;;;;;;;;5091477;27;20718;-74
2021/04/26 06:10:26;;;;;;;11.07;5.77;;;;;;;;;;5091407;27;21361;-72
2021/04/26 06:13:03;;;;;;;10.20;5.47;;;;;;;;;;5091453;27;20779;-71
2021/04/26 06:15:40;;;;;;;8.07;4.83;;;;;;;;;;5091142;27;20753;-71
2021/04/26 06:18:20;;;;;;;8.30;5.27;;;;;;;;;;5111898;27;20720;-72
2021/04/26 06:20:56;;;;;;;6.70;5.37;;;;;;;;;;5091244;28;20793;-75
2021/04/26 06:23:33;;;;;;;9.23;4.97;;;;;;;;;;5091177;27;20772;-74
2021/04/26 06:26:10;;;;;;;7.27;4.90;;;;;;;;;;5111787;27;20786;-74
2021/04/26 06:28:46;;;;;;;9.07;5.10;;;;;;;;;;5111500;27;20721;-73
2021/04/26 06:31:23;;;;;;;10.10;4.87;;;;;;;;;;5111331;27;20724;-71
2021/04/26 06:33:59;;;;;;;9.30;5.60;;;;;;;;;;5091574;28;20780;-72
2021/04/26 06:36:36;;;;;;;9.03;5.03;;;;;;;;;;5070636;28;20798;-71
2021/04/26 06:39:13;;;;;;;9.30;5.10;;;;;;;;;;5090749;27;20719;-74
2021/04/26 06:41:49;;;;;;;9.70;4.50;;;;;;;;;;5111962;27;20733;-71
2021/04/26 06:44:27;;;;;;;6.63;4.50;;;;;;;;;;5111338;27;20734;-71
2021/04/26 06:47:04;;;;;;;10.23;5.00;;;;;;;;;;5127457;27;20749;-74
2021/04/26 06:49:41;;;;;;;8.13;4.80;;;;;;;;;;5111958;27;20771;-72
2021/04/26 06:52:17;;;;;;;10.93;4.50;;;;;;;;;;5111821;27;20771;-72
2021/04/26 06:54:54;;;;;;;8.23;5.10;;;;;;;;;;5091530;28;20724;-73
2021/04/26 06:57:30;;;;;;;12.80;4.53;;;;;;;;;;5091540;27;20733;-72
2021/04/26 07:00:08;;;;;;;5.47;4.10;;;;;;;;;;5090740;28;20774;-72
2021/04/26 07:02:47;;;;;;;32.07;5.87;;;;;;;;;;5132403;27;21284;-72
2021/04/26 07:05:24;;;;;;;7.13;4.00;;;;;;;;;;5111888;27;20791;-72
2021/04/26 07:08:00;;;;;;;9.30;4.77;;;;;;;;;;5111415;27;20794;-74
2021/04/26 07:10:37;;;;;;;9.83;4.53;;;;;;;;;;5090959;28;20726;-73
2021/04/26 07:13:14;;;;;;;5.77;3.90;;;;;;;;;;5109892;27;21314;-71
2021/04/26 07:15:50;;;;;;;7.47;4.93;;;;;;;;;;5101914;27;20810;-72
2021/04/26 07:18:26;;;;;;;9.63;3.73;;;;;;;;;;5091531;27;20795;-71
2021/04/26 07:21:04;;;;;;;7.63;4.60;;;;;;;;;;5111832;27;21376;-71
2021/04/26 07:23:40;;;;;;;7.90;4.80;;;;;;;;;;5111634;27;20774;-71
2021/04/26 07:26:16;;;;;;;7.03;4.33;;;;;;;;;;5111393;27;20786;-72
2021/04/26 07:28:53;;;;;;;6.93;3.80;;;;;;;;;;5111553;27;21283;-72
2021/04/26 07:31:30;;;;;;;7.70;4.10;;;;;;;;;;5111716;27;20767;-72
2021/04/26 07:34:06;;;;;;;6.80;4.13;;;;;;;;;;5090932;27;20788;-71
2021/04/26 07:36:43;;;;;;;8.93;4.40;;;;;;;;;;5110946;27;21387;-71
2021/04/26 07:39:20;;;;;;;11.00;4.40;;;;;;;;;;5111899;27;20737;-72
2021/04/26 07:41:56;;;;;;;6.80;3.70;;;;;;;;;;5084396;28;20777;-73
2021/04/26 07:44:33;;;;;;;5.47;4.00;;;;;;;;;;5111186;27;21183;-73
2021/04/26 07:47:09;;;;;;;8.17;4.23;;;;;;;;;;5067216;27;20832;-73
2021/04/26 07:49:46;;;;;;;9.23;4.17;;;;;;;;;;5111864;27;20721;-72
2021/04/26 07:52:23;;;;;;;9.50;3.97;;;;;;;;;;5111831;27;21104;-72
2021/04/26 07:55:11;;;;;;;7.97;4.23;;;;;;;;;;5111678;27;20794;-72
2021/04/26 07:57:48;;;;;;;6.30;4.30;;;;;;;;;;5091468;27;20771;-74
2021/04/26 08:01:12;;;;;;;9.80;4.30;;;;;;;;;;5064926;28;20202;-73
2021/04/26 08:04:37;;;;;;;9.13;4.20;;;;;;;;;;5064913;28;20194;-73
2021/04/26 08:08:01;;;;;;;6.17;3.80;;;;;;;;;;5052879;28;20674;-74
2021/04/26 08:11:25;;;;;;;5.13;3.73;;;;;;;;;;5052871;28;20199;-74
2021/04/26 08:14:49;;;;;;;7.07;3.93;;;;;;;;;;5052341;28;20207;-73
2021/04/26 08:18:14;;;;;;;7.63;3.97;;;;;;;;;;5032936;28;20196;-71
2021/04/26 08:21:39;;;;;;;8.50;4.13;;;;;;;;;;5036568;28;20216;-74
2021/04/26 08:25:04;;;;;;;8.00;4.20;;;;;;;;;;5040711;28;20555;-73
2021/04/26 08:28:32;;;;;;;7.67;4.10;;;;;;;;;;5032927;28;20215;-73
2021/04/26 08:31:57;;;;;;;7.90;4.50;;;;;;;;;;5032725;28;20207;-73
2021/04/26 08:35:21;;;;;;;6.60;3.50;;;;;;;;;;5016208;28;20222;-73
2021/04/26 08:38:45;;;;;;;6.67;3.80;;;;;;;;;;5024243;28;20196;-73
2021/04/26 08:42:10;;;;;;;10.33;3.90;;;;;;;;;;5024235;28;20204;-74
2021/04/26 08:45:35;;;;;;;7.40;3.93;;;;;;;;;;5024195;28;20556;-73
2021/04/26 08:48:59;;;;;;;7.27;3.97;;;;;;;;;;5024216;28;20196;-73
2021/04/26 08:52:27;;;;;;;5.50;3.53;;;;;;;;;;5023935;28;20200;-73
2021/04/26 08:55:51;;;;;;;15.57;4.20;;;;;;;;;;5039330;28;20600;-74
2021/04/26 08:59:15;;;;;;;7.33;4.17;;;;;;;;;;5039784;28;20667;-73
2021/04/26 09:02:51;;;;;;;7.80;4.03;;;;;;;;;;5024141;28;20665;-73
2021/04/26 09:05:55;;;;;;;7.57;3.90;;;;;;;;;;5025919;28;20699;-73
2021/04/26 09:09:00;;;;;;;7.77;3.80;;;;;;;;;;5037031;28;20181;-73
2021/04/26 09:12:09;;;;;;;8.47;4.00;;;;;;;;;;5001294;28;20181;-74
2021/04/26 09:15:13;;;;;;;6.30;3.60;;;;;;;;;;5035920;28;20184;-74
2021/04/26 09:18:18;;;;;;;4.83;3.50;;;;;;;;;;5041105;28;20191;-73
2021/04/26 09:21:23;;;;;;;5.77;3.90;;;;;;;;;;5050250;28;20219;-73
2021/04/26 09:24:29;;;;;;;9.97;3.43;;;;;;;;;;5055236;28;20177;-73
2021/04/26 09:27:33;;;;;;;7.50;3.60;;;;;;;;;;5035560;28;20172;-74
2021/04/26 09:30:53;;;;;;;7.47;3.13;;;;;;;;;;5035476;28;20193;-74
2021/04/26 09:33:57;;;;;;;10.37;3.70;;;;;;;;;;5035807;28;20624;-74
2021/04/26 09:37:11;;;;;;;7.17;3.50;;;;;;;;;;5011728;28;20216;-74
2021/04/26 09:40:15;;;;;;;6.27;3.87;;;;;;;;;;5023508;28;20185;-74
2021/04/26 09:43:20;;;;;;;10.57;4.20;;;;;;;;;;5039206;28;20198;-73
2021/04/26 09:46:37;;;;;;;4.37;3.33;;;;;;;;;;5025859;28;20557;-74
2021/04/26 09:50:02;;;;;;;5.20;3.70;;;;;;;;;;5035457;28;20186;-74
2021/04/26 09:53:10;;;;;;;7.67;3.90;;;;;;;;;;5035369;28;20201;-74
2021/04/26 09:56:26;;;;;;;5.83;3.47;;;;;;;;;;5022637;28;20224;-75
2021/04/26 09:59:30;;;;;;;6.00;3.73;;;;;;;;;;5035090;28;20533;-73
2021/04/26 10:02:34;;;;;;;11.10;3.40;;;;;;;;;;5035220;28;20631;-73
2021/04/26 10:05:42;;;;;;;5.57;3.17;;;;;;;;;;5035114;28;20221;-73
2021/04/26 10:08:54;;;;;;;15.50;4.53;;;;;;;;;;5032252;28;20581;-72
2021/04/26 10:11:59;;;;;;;5.97;3.57;;;;;;;;;;5022912;28;20192;-73
2021/04/26 10:15:05;;;;;;;8.03;4.37;;;;;;;;;;5034952;28;20636;-73
2021/04/26 10:18:10;;;;;;;11.17;6.00;;;;;;;;;;5034938;28;20197;-73
2021/04/26 10:21:35;;;;;;;5.27;3.73;;;;;;;;;;5034601;28;20632;-73
2021/04/26 10:24:55;;;;;;;17.57;12.90;;;;;;;;;;5045501;23;20589;-70
2021/04/26 10:27:59;;;;;;;21.30;11.47;;;;;;;;;;5034737;28;20205;-70
2021/04/26 10:31:13;;;;;;;12.60;8.37;;;;;;;;;;5034648;28;20184;-71
2021/04/26 10:34:17;;;;;;;5.83;3.33;;;;;;;;;;5026305;28;20200;-70
2021/04/26 10:37:24;;;;;;;11.17;3.40;;;;;;;;;;5034202;28;20228;-70
2021/04/26 10:40:36;;;;;;;12.47;7.37;;;;;;;;;;5028189;28;20169;-70
2021/04/26 10:43:50;;;;;;;7.60;3.60;;;;;;;;;;5028175;28;20208;-70
2021/04/26 10:47:13;;;;;;;9.57;5.17;;;;;;;;;;5034754;28;20213;-71
2021/04/26 10:50:19;;;;;;;15.37;10.37;;;;;;;;;;5034526;28;20185;-70
2021/04/26 10:53:47;;;;;;;8.83;5.63;;;;;;;;;;5034272;28;20543;-70
2021/04/26 10:56:51;;;;;;;8.27;3.20;;;;;;;;;;5033312;28;20232;-70
2021/04/26 10:59:55;;;;;;;6.77;3.67;;;;;;;;;;5034063;28;20185;-70
2021/04/26 11:03:22;;;;;;;9.67;4.03;;;;;;;;;;5034247;28;20189;-70
2021/04/26 11:06:27;;;;;;;6.87;3.63;;;;;;;;;;5036559;28;20684;-70
2021/04/26 11:09:38;;;;;;;5.97;3.77;;;;;;;;;;5033726;28;20185;-70
2021/04/26 11:12:42;;;;;;;6.80;3.80;;;;;;;;;;5033086;28;20205;-70
2021/04/26 11:16:12;;;;;;;6.27;3.30;;;;;;;;;;5037114;28;20212;-70
2021/04/26 11:19:17;;;;;;;4.03;3.50;;;;;;;;;;5033576;28;20173;-70
2021/04/26 11:22:35;;;;;;;5.33;3.30;;;;;;;;;;5033309;28;20181;-70
2021/04/26 11:25:40;;;;;;;6.20;3.37;;;;;;;;;;5033536;28;20228;-70
2021/04/26 11:29:05;;;;;;;7.63;2.83;;;;;;;;;;5033648;28;20181;-70
2021/04/26 11:32:11;;;;;;;12.77;3.77;;;;;;;;;;5033430;28;20189;-70
2021/04/26 11:35:16;;;;;;;13.37;4.40;;;;;;;;;;5033743;28;20181;-70
2021/04/26 11:38:21;;;;;;;21.33;4.20;;;;;;;;;;5033253;28;20204;-70
2021/04/26 11:41:47;;;;;;;6.37;3.47;;;;;;;;;;5033433;28;20201;-70
2021/04/26 11:44:52;;;;;;;9.57;3.87;;;;;;;;;;5033407;28;20181;-70
2021/04/26 11:47:56;;;;;;;8.00;3.30;;;;;;;;;;5033729;28;20177;-70
2021/04/26 11:51:00;;;;;;;6.70;3.67;;;;;;;;;;5032849;28;20620;-70
2021/04/26 11:54:12;;;;;;;5.90;3.53;;;;;;;;;;5033620;28;20623;-70
2021/04/26 11:57:22;;;;;;;34.40;4.90;;;;;;;;;;5033065;28;20216;-70
2021/04/26 12:00:29;;;;;;;17.13;3.50;;;;;;;;;;5033245;28;20528;-70
2021/04/26 12:03:50;;;;;;;5.97;4.00;;;;;;;;;;5032739;28;20173;-70
2021/04/26 12:06:54;;;;;;;8.10;3.67;;;;;;;;;;5032628;28;20217;-70
2021/04/26 12:10:06;;;;;;;5.30;3.40;;;;;;;;;;5032752;28;20189;-70
2021/04/26 12:13:10;;;;;;;5.60;3.53;;;;;;;;;;5033161;28;20624;-70
2021/04/26 12:16:25;;;;;;;4.60;3.70;;;;;;;;;;5033295;28;20208;-70
2021/04/26 12:19:33;;;;;;;6.07;3.57;;;;;;;;;;5032634;28;20177;-70
2021/04/26 12:22:37;;;;;;;7.20;4.07;;;;;;;;;;5026904;28;20184;-70
2021/04/26 12:25:42;;;;;;;7.97;3.73;;;;;;;;;;5032104;28;20224;-70
2021/04/26 12:28:48;;;;;;;7.13;3.23;;;;;;;;;;5033231;28;20177;-70
2021/04/26 12:32:13;;;;;;;4.60;3.20;;;;;;;;;;5033326;28;20177;-69
2021/04/26 12:35:26;;;;;;;9.50;3.90;;;;;;;;;;5038096;28;20228;-70
2021/04/26 12:38:36;;;;;;;4.93;3.43;;;;;;;;;;5031848;28;20221;-70
2021/04/26 12:41:40;;;;;;;5.90;3.40;;;;;;;;;;5032966;28;20181;-70
2021/04/26 12:44:46;;;;;;;4.93;3.03;;;;;;;;;;5036672;28;20176;-70
2021/04/26 12:47:54;;;;;;;3.97;2.90;;;;;;;;;;5036077;28;20181;-70
2021/04/26 12:50:59;;;;;;;4.57;3.23;;;;;;;;;;5036360;28;20663;-70
2021/04/26 12:54:09;;;;;;;4.23;2.93;;;;;;;;;;5035737;28;20181;-70
2021/04/26 12:57:22;;;;;;;3.97;3.10;;;;;;;;;;5035566;28;20224;-69
2021/04/26 13:00:34;;;;;;;7.00;2.77;;;;;;;;;;5036537;28;20640;-70
2021/04/26 13:03:53;;;;;;;5.30;2.83;;;;;;;;;;5036364;28;20189;-69
2021/04/26 13:06:57;;;;;;;4.73;3.13;;;;;;;;;;5036189;28;20220;-70
2021/04/26 13:10:07;;;;;;;5.20;2.33;;;;;;;;;;5036377;28;20177;-69
2021/04/26 13:13:11;;;;;;;5.30;2.73;;;;;;;;;;5035315;28;20540;-70
2021/04/26 13:16:17;;;;;;;6.17;3.87;;;;;;;;;;5035467;28;20224;-70
2021/04/26 13:19:26;;;;;;;20.40;3.20;;;;;;;;;;5035453;28;20177;-70
2021/04/26 13:22:31;;;;;;;10.17;2.90;;;;;;;;;;5035035;28;20173;-70
2021/04/26 13:25:38;;;;;;;6.70;3.10;;;;;;;;;;5035713;28;20228;-70
2021/04/26 13:28:42;;;;;;;5.33;3.00;;;;;;;;;;5036090;28;20185;-70
2021/04/26 13:31:50;;;;;;;5.33;2.83;;;;;;;;;;5035781;28;20196;-70
2021/04/26 13:34:54;;;;;;;6.30;2.97;;;;;;;;;;5041052;28;20177;-70
2021/04/26 13:37:58;;;;;;;8.57;3.33;;;;;;;;;;5035463;28;20220;-70
2021/04/26 13:41:03;;;;;;;4.83;3.10;;;;;;;;;;5035633;28;20185;-70
2021/04/26 13:44:08;;;;;;;4.87;2.53;;;;;;;;;;5035554;28;20525;-70
2021/04/26 13:47:12;;;;;;;5.53;2.97;;;;;;;;;;5034564;28;20216;-70
2021/04/26 13:50:16;;;;;;;7.87;3.00;;;;;;;;;;5036044;28;20181;-70
2021/04/26 13:53:21;;;;;;;7.53;3.10;;;;;;;;;;5035284;28;20189;-70
2021/04/26 13:56:25;;;;;;;8.10;2.70;;;;;;;;;;5037197;28;20208;-70
2021/04/26 13:59:29;;;;;;;8.83;2.93;;;;;;;;;;5035323;28;20517;-70
2021/04/26 14:02:33;;;;;;;8.67;2.80;;;;;;;;;;5035531;28;20169;-70
2021/04/26 14:05:38;;;;;;;4.90;2.33;;;;;;;;;;5039102;28;20556;-70
2021/04/26 14:08:42;;;;;;;7.03;3.13;;;;;;;;;;5034836;28;20631;-70
2021/04/26 14:11:46;;;;;;;6.93;2.60;;;;;;;;;;5035419;28;20184;-70
2021/04/26 14:14:50;;;;;;;2.80;2.50;;;;;;;;;;5035135;28;20208;-70
2021/04/26 14:17:54;;;;;;;4.63;2.60;;;;;;;;;;5034312;28;20556;-71
2021/04/26 14:20:59;;;;;;;7.90;3.37;;;;;;;;;;5034124;28;20205;-71
2021/04/26 14:24:05;;;;;;;5.03;3.20;;;;;;;;;;5034666;28;20540;-70
2021/04/26 14:27:09;;;;;;;4.30;3.03;;;;;;;;;;5033732;28;20213;-70
2021/04/26 14:30:14;;;;;;;4.90;3.07;;;;;;;;;;5033883;28;20177;-70
2021/04/26 14:33:25;;;;;;;8.47;2.97;;;;;;;;;;5040014;28;20188;-70
2021/04/26 14:36:29;;;;;;;5.50;2.93;;;;;;;;;;5034524;28;20224;-70
2021/04/26 14:39:33;;;;;;;8.30;3.13;;;;;;;;;;5033995;28;20201;-70
2021/04/26 14:42:37;;;;;;;5.50;2.93;;;;;;;;;;5034829;28;20185;-70
2021/04/26 14:45:41;;;;;;;6.87;2.97;;;;;;;;;;5034057;28;20216;-71
2021/04/26 14:48:47;;;;;;;7.73;3.47;;;;;;;;;;5034932;28;20176;-71
2021/04/26 14:51:51;;;;;;;9.87;3.10;;;;;;;;;;5034589;28;20177;-70
2021/04/26 14:54:55;;;;;;;12.17;3.40;;;;;;;;;;5034307;28;20189;-70
2021/04/26 14:58:00;;;;;;;6.17;2.60;;;;;;;;;;5034344;28;20213;-70
2021/04/26 15:01:03;;;;;;;10.90;3.13;;;;;;;;;;5034149;28;20631;-70
2021/04/26 15:04:08;;;;;;;8.30;2.80;;;;;;;;;;5033290;28;20200;-71
2021/04/26 15:07:13;;;;;;;4.30;2.80;;;;;;;;;;5032600;28;20217;-71
2021/04/26 15:10:18;;;;;;;3.10;2.73;;;;;;;;;;5034207;28;20209;-71
2021/04/26 15:13:28;;;;;;;8.37;2.90;;;;;;;;;;5034155;28;20185;-71
2021/04/26 15:16:33;;;;;;;20.77;4.13;;;;;;;;;;5034050;28;20212;-71
2021/04/26 15:19:43;;;;;;;6.40;2.70;;;;;;;;;;5038824;28;20208;-71
2021/04/26 15:22:47;;;;;;;3.57;2.40;;;;;;;;;;5033372;28;20200;-70
2021/04/26 15:25:51;;;;;;;5.47;2.87;;;;;;;;;;5033475;28;20228;-70
2021/04/26 15:28:55;;;;;;;3.33;2.50;;;;;;;;;;5033644;28;20197;-70
2021/04/26 15:32:00;;;;;;;6.10;2.57;;;;;;;;;;5032860;28;20208;-71
2021/04/26 15:35:04;;;;;;;8.10;3.10;;;;;;;;;;5033822;28;20184;-70
2021/04/26 15:38:10;;;;;;;11.50;3.17;;;;;;;;;;5033617;28;20205;-70
2021/04/26 15:41:14;;;;;;;3.60;2.40;;;;;;;;;;5033458;28;20189;-70
2021/04/26 15:44:18;;;;;;;4.73;3.20;;;;;;;;;;5033516;28;20172;-70
2021/04/26 15:47:22;;;;;;;4.17;2.90;;;;;;;;;;5032604;28;20209;-70
2021/04/26 15:50:26;;;;;;;5.60;2.73;;;;;;;;;;5033341;28;20188;-70
2021/04/26 15:53:30;;;;;;;5.67;3.33;;;;;;;;;;5033358;28;20207;-70
2021/04/26 15:56:35;;;;;;;8.77;4.60;;;;;;;;;;5028440;28;20220;-71
2021/04/26 15:59:39;;;;;;;5.23;3.63;;;;;;;;;;5033137;28;20208;-70
2021/04/26 16:02:43;;;;;;;12.30;4.30;;;;;;;;;;5033649;28;20188;-73
2021/04/26 16:05:48;;;;;;;6.77;3.00;;;;;;;;;;5033283;28;20682;-72
2021/04/26 16:08:53;;;;;;;4.33;3.40;;;;;;;;;;5033880;28;20177;-73
2021/04/26 16:11:57;;;;;;;15.97;4.77;;;;;;;;;;5033621;28;20177;-73
2021/04/26 16:15:03;;;;;;;14.50;8.53;;;;;;;;;;5033176;28;20201;-73
2021/04/26 16:18:07;;;;;;;9.83;6.20;;;;;;;;;;5034747;28;20216;-73
2021/04/26 16:21:13;;;;;;;8.23;5.37;;;;;;;;;;5025401;28;20532;-73
2021/04/26 16:24:17;;;;;;;21.37;4.50;;;;;;;;;;5052962;22;20544;-75
2021/04/26 16:27:22;;;;;;;12.83;6.67;;;;;;;;;;5017375;28;20233;-74
2021/04/26 16:30:27;;;;;;;6.03;3.93;;;;;;;;;;5016747;28;20181;-74
2021/04/26 16:33:31;;;;;;;10.03;3.10;;;;;;;;;;5011062;28;20514;-74
2021/04/26 16:36:35;;;;;;;74.43;6.77;;;;;;;;;;5020970;28;20220;-74
2021/04/26 16:39:39;;;;;;;13.07;4.17;;;;;;;;;;5036727;28;20575;-75
2021/04/26 16:42:49;;;;;;;6.60;3.30;;;;;;;;;;5037000;28;20567;-74
2021/04/26 16:45:53;;;;;;;4.50;2.83;;;;;;;;;;5024819;28;20212;-75
2021/04/26 16:48:57;;;;;;;5.57;3.23;;;;;;;;;;5036461;28;20177;-73
2021/04/26 16:52:03;;;;;;;7.50;3.50;;;;;;;;;;5024618;28;20200;-74
2021/04/26 16:55:08;;;;;;;6.13;3.03;;;;;;;;;;5036293;28;20181;-74
2021/04/26 16:58:13;;;;;;;9.07;3.30;;;;;;;;;;5024172;28;20185;-74
2021/04/26 17:01:17;;;;;;;9.57;2.70;;;;;;;;;;5032618;28;20193;-74
2021/04/26 17:04:22;;;;;;;7.07;3.07;;;;;;;;;;5032616;28;20176;-74
2021/04/26 17:07:27;;;;;;;7.40;3.07;;;;;;;;;;5032632;28;20204;-74
2021/04/26 17:10:32;;;;;;;7.40;3.30;;;;;;;;;;5032322;28;20192;-74
2021/04/26 17:13:38;;;;;;;9.90;3.57;;;;;;;;;;5032461;28;20177;-75
2021/04/26 17:16:49;;;;;;;42.33;4.80;;;;;;;;;;5032161;28;20216;-73
2021/04/26 17:19:53;;;;;;;15.40;2.77;;;;;;;;;;5031959;28;20213;-74
2021/04/26 17:22:58;;;;;;;7.67;3.33;;;;;;;;;;5031712;28;20185;-73
2021/04/26 17:26:02;;;;;;;7.30;3.33;;;;;;;;;;5032069;28;20236;-75
2021/04/26 17:29:07;;;;;;;6.47;3.63;;;;;;;;;;5031628;28;20173;-73
2021/04/26 17:32:11;;;;;;;5.73;3.07;;;;;;;;;;5020021;28;20185;-74